sensor_id;sensor_type;location;lat;lon;timestamp;P1;durP1;ratioP1;P2;durP2;ratioP2
37049;SDS011;22958;51.232;6.826;2023-07-20T00:02:09;11.47;;;4.40;;
37049;SDS011;22958;51.232;6.826;2023-07-20T00:04:35;17.63;;;4.80;;
37049;SDS011;22958;51.232;6.826;2023-07-20T00:07:00;9.33;;;4.90;;
37049;SDS011;22958;51.232;6.826;2023-07-20T00:09:26;13.87;;;5.87;;
37049;SDS011;22958;51.232;6.826;2023-07-20T00:11:52;8.30;;;4.43;;
37049;SDS011;22958;51.232;6.826;2023-07-20T00:14:18;17.10;;;5.30;;
37049;SDS011;22958;51.232;6.826;2023-07-20T00:16:47;13.98;;;4.47;;
37049;SDS011;22958;51.232;6.826;2023-07-20T00:19:20;10.48;;;4.78;;
37049;SDS011;22958;51.232;6.826;2023-07-20T00:21:49;14.25;;;4.65;;
37049;SDS011;22958;51.232;6.826;2023-07-20T00:24:15;12.90;;;5.13;;
37049;SDS011;22958;51.232;6.826;2023-07-20T00:26:40;12.13;;;4.83;;
37049;SDS011;22958;51.232;6.826;2023-07-20T00:29:06;8.97;;;3.93;;
37049;SDS011;22958;51.232;6.826;2023-07-20T00:31:31;10.80;;;5.27;;
37049;SDS011;22958;51.232;6.826;2023-07-20T00:33:57;11.23;;;4.93;;
37049;SDS011;22958;51.232;6.826;2023-07-20T00:36:22;9.67;;;4.07;;
37049;SDS011;22958;51.232;6.826;2023-07-20T00:38:48;12.93;;;4.83;;
37049;SDS011;22958;51.232;6.826;2023-07-20T00:41:13;10.63;;;4.20;;
37049;SDS011;22958;51.232;6.826;2023-07-20T00:43:39;12.88;;;5.18;;
37049;SDS011;22958;51.232;6.826;2023-07-20T00:46:05;12.87;;;4.50;;
37049;SDS011;22958;51.232;6.826;2023-07-20T00:48:31;6.07;;;4.07;;
37049;SDS011;22958;51.232;6.826;2023-07-20T00:50:57;9.95;;;4.65;;
37049;SDS011;22958;51.232;6.826;2023-07-20T00:53:24;11.63;;;4.43;;
37049;SDS011;22958;51.232;6.826;2023-07-20T00:55:50;11.10;;;4.30;;
37049;SDS011;22958;51.232;6.826;2023-07-20T00:58:15;17.97;;;4.87;;
37049;SDS011;22958;51.232;6.826;2023-07-20T01:00:41;15.47;;;4.67;;
37049;SDS011;22958;51.232;6.826;2023-07-20T01:03:07;7.47;;;4.30;;
37049;SDS011;22958;51.232;6.826;2023-07-20T01:05:40;7.13;;;3.90;;
37049;SDS011;22958;51.232;6.826;2023-07-20T01:08:15;8.88;;;4.93;;
37049;SDS011;22958;51.232;6.826;2023-07-20T01:10:54;8.82;;;4.55;;
37049;SDS011;22958;51.232;6.826;2023-07-20T01:13:24;14.77;;;5.32;;
37049;SDS011;22958;51.232;6.826;2023-07-20T01:16:00;12.32;;;4.20;;
37049;SDS011;22958;51.232;6.826;2023-07-20T01:18:26;11.90;;;5.15;;
37049;SDS011;22958;51.232;6.826;2023-07-20T01:20:52;10.50;;;4.90;;
37049;SDS011;22958;51.232;6.826;2023-07-20T01:23:38;11.93;;;4.47;;
37049;SDS011;22958;51.232;6.826;2023-07-20T01:29:11;11.63;;;5.22;;
37049;SDS011;22958;51.232;6.826;2023-07-20T01:31:57;9.73;;;4.93;;
37049;SDS011;22958;51.232;6.826;2023-07-20T01:34:24;21.58;;;5.35;;
37049;SDS011;22958;51.232;6.826;2023-07-20T01:36:50;9.75;;;5.30;;
37049;SDS011;22958;51.232;6.826;2023-07-20T01:39:18;13.20;;;5.15;;
37049;SDS011;22958;51.232;6.826;2023-07-20T01:41:45;13.63;;;4.80;;
37049;SDS011;22958;51.232;6.826;2023-07-20T01:44:12;16.85;;;5.22;;
37049;SDS011;22958;51.232;6.826;2023-07-20T01:46:38;10.68;;;5.18;;
37049;SDS011;22958;51.232;6.826;2023-07-20T01:49:03;11.83;;;5.50;;
37049;SDS011;22958;51.232;6.826;2023-07-20T01:51:29;12.93;;;5.63;;
37049;SDS011;22958;51.232;6.826;2023-07-20T01:53:54;8.17;;;5.30;;
37049;SDS011;22958;51.232;6.826;2023-07-20T01:56:20;11.87;;;5.43;;
37049;SDS011;22958;51.232;6.826;2023-07-20T01:58:45;11.67;;;4.60;;
37049;SDS011;22958;51.232;6.826;2023-07-20T02:01:11;11.87;;;5.20;;
37049;SDS011;22958;51.232;6.826;2023-07-20T02:03:36;12.97;;;5.23;;
37049;SDS011;22958;51.232;6.826;2023-07-20T02:06:02;11.90;;;5.10;;
37049;SDS011;22958;51.232;6.826;2023-07-20T02:08:27;13.07;;;5.17;;
37049;SDS011;22958;51.232;6.826;2023-07-20T02:10:53;8.77;;;4.80;;
37049;SDS011;22958;51.232;6.826;2023-07-20T02:13:19;11.57;;;5.17;;
37049;SDS011;22958;51.232;6.826;2023-07-20T02:15:44;8.93;;;5.23;;
37049;SDS011;22958;51.232;6.826;2023-07-20T02:18:12;13.30;;;5.18;;
37049;SDS011;22958;51.232;6.826;2023-07-20T02:20:37;9.70;;;4.63;;
37049;SDS011;22958;51.232;6.826;2023-07-20T02:23:03;12.43;;;5.13;;
37049;SDS011;22958;51.232;6.826;2023-07-20T02:25:28;11.47;;;4.93;;
37049;SDS011;22958;51.232;6.826;2023-07-20T02:27:55;10.30;;;5.00;;
37049;SDS011;22958;51.232;6.826;2023-07-20T02:30:21;11.65;;;5.32;;
37049;SDS011;22958;51.232;6.826;2023-07-20T02:32:47;12.83;;;4.50;;
37049;SDS011;22958;51.232;6.826;2023-07-20T02:35:13;12.80;;;5.43;;
37049;SDS011;22958;51.232;6.826;2023-07-20T02:37:42;8.90;;;4.88;;
37049;SDS011;22958;51.232;6.826;2023-07-20T02:40:07;11.97;;;5.43;;
37049;SDS011;22958;51.232;6.826;2023-07-20T02:42:34;12.65;;;4.68;;
37049;SDS011;22958;51.232;6.826;2023-07-20T02:45:00;11.75;;;5.63;;
37049;SDS011;22958;51.232;6.826;2023-07-20T02:47:26;14.02;;;5.20;;
37049;SDS011;22958;51.232;6.826;2023-07-20T02:49:52;8.93;;;5.17;;
37049;SDS011;22958;51.232;6.826;2023-07-20T02:52:17;10.00;;;5.30;;
37049;SDS011;22958;51.232;6.826;2023-07-20T02:54:43;13.03;;;5.67;;
37049;SDS011;22958;51.232;6.826;2023-07-20T02:57:08;14.20;;;5.47;;
37049;SDS011;22958;51.232;6.826;2023-07-20T02:59:34;11.57;;;5.23;;
37049;SDS011;22958;51.232;6.826;2023-07-20T03:01:59;13.07;;;5.50;;
37049;SDS011;22958;51.232;6.826;2023-07-20T03:04:28;8.77;;;4.90;;
37049;SDS011;22958;51.232;6.826;2023-07-20T03:06:53;11.75;;;5.03;;
37049;SDS011;22958;51.232;6.826;2023-07-20T03:09:19;11.87;;;5.27;;
37049;SDS011;22958;51.232;6.826;2023-07-20T03:11:44;11.87;;;6.00;;
37049;SDS011;22958;51.232;6.826;2023-07-20T03:14:10;9.37;;;5.40;;
37049;SDS011;22958;51.232;6.826;2023-07-20T03:16:36;17.42;;;6.20;;
37049;SDS011;22958;51.232;6.826;2023-07-20T03:19:02;19.93;;;6.17;;
37049;SDS011;22958;51.232;6.826;2023-07-20T03:21:28;17.25;;;6.82;;
37049;SDS011;22958;51.232;6.826;2023-07-20T03:23:54;14.27;;;6.43;;
37049;SDS011;22958;51.232;6.826;2023-07-20T03:26:19;18.83;;;6.47;;
37049;SDS011;22958;51.232;6.826;2023-07-20T03:28:45;20.37;;;6.97;;
37049;SDS011;22958;51.232;6.826;2023-07-20T03:31:10;13.07;;;6.50;;
37049;SDS011;22958;51.232;6.826;2023-07-20T03:33:36;13.10;;;6.60;;
37049;SDS011;22958;51.232;6.826;2023-07-20T03:36:01;14.10;;;6.20;;
37049;SDS011;22958;51.232;6.826;2023-07-20T03:38:27;14.60;;;6.13;;
37049;SDS011;22958;51.232;6.826;2023-07-20T03:40:53;15.90;;;6.73;;
37049;SDS011;22958;51.232;6.826;2023-07-20T03:43:22;14.75;;;6.32;;
37049;SDS011;22958;51.232;6.826;2023-07-20T03:45:49;17.25;;;6.35;;
37049;SDS011;22958;51.232;6.826;2023-07-20T03:50:43;15.48;;;6.97;;
37049;SDS011;22958;51.232;6.826;2023-07-20T03:53:10;13.50;;;5.78;;
37049;SDS011;22958;51.232;6.826;2023-07-20T03:55:36;18.97;;;6.73;;
37049;SDS011;22958;51.232;6.826;2023-07-20T03:58:01;15.93;;;6.10;;
37049;SDS011;22958;51.232;6.826;2023-07-20T04:00:27;13.97;;;6.73;;
37049;SDS011;22958;51.232;6.826;2023-07-20T04:02:52;13.73;;;6.43;;
37049;SDS011;22958;51.232;6.826;2023-07-20T04:05:19;17.75;;;7.35;;
37049;SDS011;22958;51.232;6.826;2023-07-20T04:07:44;19.90;;;7.67;;
37049;SDS011;22958;51.232;6.826;2023-07-20T04:10:10;18.67;;;8.43;;
37049;SDS011;22958;51.232;6.826;2023-07-20T04:12:35;16.53;;;7.67;;
37049;SDS011;22958;51.232;6.826;2023-07-20T04:15:01;16.60;;;7.73;;
37049;SDS011;22958;51.232;6.826;2023-07-20T04:17:29;27.45;;;8.40;;
37049;SDS011;22958;51.232;6.826;2023-07-20T04:19:54;15.83;;;6.90;;
37049;SDS011;22958;51.232;6.826;2023-07-20T04:22:20;16.63;;;8.47;;
37049;SDS011;22958;51.232;6.826;2023-07-20T04:24:46;15.45;;;7.80;;
37049;SDS011;22958;51.232;6.826;2023-07-20T04:27:11;22.00;;;9.23;;
37049;SDS011;22958;51.232;6.826;2023-07-20T04:29:37;15.77;;;8.67;;
37049;SDS011;22958;51.232;6.826;2023-07-20T04:32:02;19.03;;;9.30;;
37049;SDS011;22958;51.232;6.826;2023-07-20T04:34:28;21.27;;;10.13;;
37049;SDS011;22958;51.232;6.826;2023-07-20T04:36:53;18.97;;;9.77;;
37049;SDS011;22958;51.232;6.826;2023-07-20T04:39:19;22.47;;;9.60;;
37049;SDS011;22958;51.232;6.826;2023-07-20T04:41:44;24.67;;;10.30;;
37049;SDS011;22958;51.232;6.826;2023-07-20T04:44:10;22.83;;;11.23;;
37049;SDS011;22958;51.232;6.826;2023-07-20T04:46:35;24.23;;;12.47;;
37049;SDS011;22958;51.232;6.826;2023-07-20T04:49:01;22.97;;;11.03;;
37049;SDS011;22958;51.232;6.826;2023-07-20T04:51:27;22.53;;;11.97;;
37049;SDS011;22958;51.232;6.826;2023-07-20T04:53:55;26.55;;;12.45;;
37049;SDS011;22958;51.232;6.826;2023-07-20T04:56:21;24.48;;;11.63;;
37049;SDS011;22958;51.232;6.826;2023-07-20T04:58:48;24.13;;;12.48;;
37049;SDS011;22958;51.232;6.826;2023-07-20T05:01:13;28.17;;;14.27;;
37049;SDS011;22958;51.232;6.826;2023-07-20T05:03:39;27.23;;;12.83;;
37049;SDS011;22958;51.232;6.826;2023-07-20T05:06:04;27.50;;;16.47;;
37049;SDS011;22958;51.232;6.826;2023-07-20T05:08:30;30.03;;;14.70;;
37049;SDS011;22958;51.232;6.826;2023-07-20T05:10:55;26.80;;;13.47;;
37049;SDS011;22958;51.232;6.826;2023-07-20T05:13:21;24.20;;;12.90;;
37049;SDS011;22958;51.232;6.826;2023-07-20T05:15:46;21.97;;;12.07;;
37049;SDS011;22958;51.232;6.826;2023-07-20T05:18:15;24.08;;;13.70;;
37049;SDS011;22958;51.232;6.826;2023-07-20T05:20:45;31.60;;;15.10;;
37049;SDS011;22958;51.232;6.826;2023-07-20T05:25:36;27.42;;;14.52;;
37049;SDS011;22958;51.232;6.826;2023-07-20T05:28:02;24.97;;;15.03;;
37049;SDS011;22958;51.232;6.826;2023-07-20T05:30:28;28.90;;;15.73;;
37049;SDS011;22958;51.232;6.826;2023-07-20T05:32:54;29.63;;;15.80;;
37049;SDS011;22958;51.232;6.826;2023-07-20T05:35:19;28.43;;;17.13;;
37049;SDS011;22958;51.232;6.826;2023-07-20T05:37:45;28.70;;;15.82;;
37049;SDS011;22958;51.232;6.826;2023-07-20T05:40:11;39.27;;;19.73;;
37049;SDS011;22958;51.232;6.826;2023-07-20T05:42:38;28.85;;;18.23;;
37049;SDS011;22958;51.232;6.826;2023-07-20T05:45:04;31.15;;;18.65;;
37049;SDS011;22958;51.232;6.826;2023-07-20T05:47:30;32.22;;;18.13;;
37049;SDS011;22958;51.232;6.826;2023-07-20T05:49:56;29.87;;;18.80;;
37049;SDS011;22958;51.232;6.826;2023-07-20T05:52:21;30.57;;;19.07;;
37049;SDS011;22958;51.232;6.826;2023-07-20T05:54:46;28.57;;;17.33;;
37049;SDS011;22958;51.232;6.826;2023-07-20T05:57:12;29.23;;;17.23;;
37049;SDS011;22958;51.232;6.826;2023-07-20T05:59:38;32.47;;;17.90;;
37049;SDS011;22958;51.232;6.826;2023-07-20T06:02:05;33.38;;;17.98;;
37049;SDS011;22958;51.232;6.826;2023-07-20T06:04:33;29.23;;;16.85;;
37049;SDS011;22958;51.232;6.826;2023-07-20T06:06:58;29.73;;;16.27;;
37049;SDS011;22958;51.232;6.826;2023-07-20T06:09:24;23.40;;;16.07;;
37049;SDS011;22958;51.232;6.826;2023-07-20T06:11:49;23.33;;;15.73;;
37049;SDS011;22958;51.232;6.826;2023-07-20T06:14:15;28.13;;;15.53;;
37049;SDS011;22958;51.232;6.826;2023-07-20T06:16:40;23.40;;;15.10;;
37049;SDS011;22958;51.232;6.826;2023-07-20T06:19:06;23.47;;;15.37;;
37049;SDS011;22958;51.232;6.826;2023-07-20T06:21:31;27.93;;;14.27;;
37049;SDS011;22958;51.232;6.826;2023-07-20T06:23:57;25.00;;;14.47;;
37049;SDS011;22958;51.232;6.826;2023-07-20T06:26:23;23.40;;;13.25;;
37049;SDS011;22958;51.232;6.826;2023-07-20T06:28:49;18.83;;;12.57;;
37049;SDS011;22958;51.232;6.826;2023-07-20T06:31:14;19.33;;;11.27;;
37049;SDS011;22958;51.232;6.826;2023-07-20T06:33:41;21.23;;;10.68;;
37049;SDS011;22958;51.232;6.826;2023-07-20T06:36:07;16.50;;;10.50;;
37049;SDS011;22958;51.232;6.826;2023-07-20T06:38:32;13.23;;;8.60;;
37049;SDS011;22958;51.232;6.826;2023-07-20T06:40:58;17.97;;;9.60;;
37049;SDS011;22958;51.232;6.826;2023-07-20T06:43:24;16.20;;;10.70;;
37049;SDS011;22958;51.232;6.826;2023-07-20T06:45:52;21.83;;;14.70;;
37049;SDS011;22958;51.232;6.826;2023-07-20T06:48:21;20.67;;;14.68;;
37049;SDS011;22958;51.232;6.826;2023-07-20T06:50:47;20.65;;;12.55;;
37049;SDS011;22958;51.232;6.826;2023-07-20T06:53:12;16.13;;;11.90;;
37049;SDS011;22958;51.232;6.826;2023-07-20T06:55:38;17.07;;;11.87;;
37049;SDS011;22958;51.232;6.826;2023-07-20T06:58:04;19.90;;;11.45;;
37049;SDS011;22958;51.232;6.826;2023-07-20T07:00:30;18.53;;;11.43;;
37049;SDS011;22958;51.232;6.826;2023-07-20T07:02:55;14.27;;;10.93;;
37049;SDS011;22958;51.232;6.826;2023-07-20T07:05:21;14.77;;;9.50;;
37049;SDS011;22958;51.232;6.826;2023-07-20T07:07:47;18.50;;;11.60;;
37049;SDS011;22958;51.232;6.826;2023-07-20T07:10:12;15.43;;;11.27;;
37049;SDS011;22958;51.232;6.826;2023-07-20T07:12:38;18.38;;;13.48;;
37049;SDS011;22958;51.232;6.826;2023-07-20T07:15:04;17.67;;;11.93;;
37049;SDS011;22958;51.232;6.826;2023-07-20T07:17:33;19.60;;;10.20;;
37049;SDS011;22958;51.232;6.826;2023-07-20T07:20:00;14.00;;;10.60;;
37049;SDS011;22958;51.232;6.826;2023-07-20T07:22:25;16.03;;;11.80;;
37049;SDS011;22958;51.232;6.826;2023-07-20T07:24:51;14.73;;;10.53;;
37049;SDS011;22958;51.232;6.826;2023-07-20T07:27:16;16.63;;;12.40;;
37049;SDS011;22958;51.232;6.826;2023-07-20T07:29:42;30.53;;;11.23;;
37049;SDS011;22958;51.232;6.826;2023-07-20T07:32:11;11.68;;;9.65;;
37049;SDS011;22958;51.232;6.826;2023-07-20T07:34:37;13.52;;;8.25;;
37049;SDS011;22958;51.232;6.826;2023-07-20T07:37:03;11.67;;;7.13;;
37049;SDS011;22958;51.232;6.826;2023-07-20T07:39:29;15.68;;;6.97;;
37049;SDS011;22958;51.232;6.826;2023-07-20T07:41:56;11.02;;;6.90;;
37049;SDS011;22958;51.232;6.826;2023-07-20T07:44:21;9.85;;;5.60;;
37049;SDS011;22958;51.232;6.826;2023-07-20T07:46:47;6.90;;;4.83;;
37049;SDS011;22958;51.232;6.826;2023-07-20T07:49:13;10.40;;;5.07;;
37049;SDS011;22958;51.232;6.826;2023-07-20T07:51:39;10.57;;;5.47;;
37049;SDS011;22958;51.232;6.826;2023-07-20T07:54:05;10.67;;;3.93;;
37049;SDS011;22958;51.232;6.826;2023-07-20T07:56:30;3.50;;;2.07;;
37049;SDS011;22958;51.232;6.826;2023-07-20T07:58:56;3.27;;;2.13;;
37049;SDS011;22958;51.232;6.826;2023-07-20T08:01:21;2.63;;;1.80;;
37049;SDS011;22958;51.232;6.826;2023-07-20T08:03:47;3.07;;;1.90;;
37049;SDS011;22958;51.232;6.826;2023-07-20T08:06:13;4.77;;;2.47;;
37049;SDS011;22958;51.232;6.826;2023-07-20T08:08:39;4.25;;;1.85;;
37049;SDS011;22958;51.232;6.826;2023-07-20T08:11:04;2.80;;;1.87;;
37049;SDS011;22958;51.232;6.826;2023-07-20T08:13:30;8.73;;;2.30;;
37049;SDS011;22958;51.232;6.826;2023-07-20T08:15:57;4.43;;;1.70;;
37049;SDS011;22958;51.232;6.826;2023-07-20T08:18:22;4.60;;;2.47;;
37049;SDS011;22958;51.232;6.826;2023-07-20T08:20:48;7.17;;;2.43;;
37049;SDS011;22958;51.232;6.826;2023-07-20T08:23:14;4.63;;;2.90;;
37049;SDS011;22958;51.232;6.826;2023-07-20T08:25:40;5.20;;;3.38;;
37049;SDS011;22958;51.232;6.826;2023-07-20T08:28:09;8.95;;;4.32;;
37049;SDS011;22958;51.232;6.826;2023-07-20T08:30:46;9.68;;;3.53;;
37049;SDS011;22958;51.232;6.826;2023-07-20T08:33:13;8.20;;;4.15;;
37049;SDS011;22958;51.232;6.826;2023-07-20T08:38:05;4.00;;;2.05;;
37049;SDS011;22958;51.232;6.826;2023-07-20T08:40:31;2.90;;;2.10;;
37049;SDS011;22958;51.232;6.826;2023-07-20T08:42:58;5.68;;;2.80;;
37049;SDS011;22958;51.232;6.826;2023-07-20T08:45:25;7.03;;;3.53;;
37049;SDS011;22958;51.232;6.826;2023-07-20T08:47:57;5.90;;;3.08;;
37049;SDS011;22958;51.232;6.826;2023-07-20T08:52:50;6.53;;;4.60;;
37049;SDS011;22958;51.232;6.826;2023-07-20T08:55:18;6.38;;;4.53;;
37049;SDS011;22958;51.232;6.826;2023-07-20T08:57:45;7.03;;;4.78;;
37049;SDS011;22958;51.232;6.826;2023-07-20T09:00:13;6.82;;;3.78;;
37049;SDS011;22958;51.232;6.826;2023-07-20T09:02:39;14.27;;;3.70;;
37049;SDS011;22958;51.232;6.826;2023-07-20T09:05:07;2.80;;;1.90;;
37049;SDS011;22958;51.232;6.826;2023-07-20T09:07:35;4.65;;;1.95;;
37049;SDS011;22958;51.232;6.826;2023-07-20T09:12:31;10.27;;;1.50;;
37049;SDS011;22958;51.232;6.826;2023-07-20T09:14:59;6.78;;;1.85;;
37049;SDS011;22958;51.232;6.826;2023-07-20T09:17:26;2.58;;;1.80;;
37049;SDS011;22958;51.232;6.826;2023-07-20T09:19:52;3.88;;;2.15;;
37049;SDS011;22958;51.232;6.826;2023-07-20T09:22:17;2.37;;;1.70;;
37049;SDS011;22958;51.232;6.826;2023-07-20T09:24:43;2.37;;;1.60;;
37049;SDS011;22958;51.232;6.826;2023-07-20T09:27:09;3.67;;;1.75;;
37049;SDS011;22958;51.232;6.826;2023-07-20T09:29:46;3.75;;;1.85;;
37049;SDS011;22958;51.232;6.826;2023-07-20T09:32:18;4.18;;;1.75;;
37049;SDS011;22958;51.232;6.826;2023-07-20T09:34:45;4.32;;;1.50;;
37049;SDS011;22958;51.232;6.826;2023-07-20T09:37:11;3.83;;;1.65;;
37049;SDS011;22958;51.232;6.826;2023-07-20T09:39:46;4.53;;;2.30;;
37049;SDS011;22958;51.232;6.826;2023-07-20T09:42:12;8.05;;;2.50;;
37049;SDS011;22958;51.232;6.826;2023-07-20T09:44:38;4.50;;;1.80;;
37049;SDS011;22958;51.232;6.826;2023-07-20T09:47:05;4.03;;;1.90;;
37049;SDS011;22958;51.232;6.826;2023-07-20T09:49:31;9.80;;;1.97;;
37049;SDS011;22958;51.232;6.826;2023-07-20T09:51:57;6.35;;;1.85;;
37049;SDS011;22958;51.232;6.826;2023-07-20T09:54:25;3.35;;;1.55;;
37049;SDS011;22958;51.232;6.826;2023-07-20T09:56:53;2.35;;;1.33;;
37049;SDS011;22958;51.232;6.826;2023-07-20T09:59:19;4.22;;;1.30;;
37049;SDS011;22958;51.232;6.826;2023-07-20T10:01:44;1.50;;;0.90;;
37049;SDS011;22958;51.232;6.826;2023-07-20T10:04:12;1.38;;;0.88;;
37049;SDS011;22958;51.232;6.826;2023-07-20T10:06:41;3.35;;;1.17;;
37049;SDS011;22958;51.232;6.826;2023-07-20T10:09:08;1.67;;;0.95;;
37049;SDS011;22958;51.232;6.826;2023-07-20T10:11:37;4.25;;;1.20;;
37049;SDS011;22958;51.232;6.826;2023-07-20T10:14:08;3.85;;;0.95;;
37049;SDS011;22958;51.232;6.826;2023-07-20T10:16:39;3.50;;;1.20;;
37049;SDS011;22958;51.232;6.826;2023-07-20T10:19:17;2.42;;;1.30;;
37049;SDS011;22958;51.232;6.826;2023-07-20T10:21:54;5.85;;;1.55;;
37049;SDS011;22958;51.232;6.826;2023-07-20T10:24:24;2.28;;;0.90;;
37049;SDS011;22958;51.232;6.826;2023-07-20T10:26:51;2.05;;;1.10;;
37049;SDS011;22958;51.232;6.826;2023-07-20T10:29:17;1.92;;;0.60;;
37049;SDS011;22958;51.232;6.826;2023-07-20T10:31:43;1.90;;;0.82;;
37049;SDS011;22958;51.232;6.826;2023-07-20T10:34:09;2.10;;;0.80;;
37049;SDS011;22958;51.232;6.826;2023-07-20T10:36:35;3.50;;;0.95;;
37049;SDS011;22958;51.232;6.826;2023-07-20T10:39:27;1.65;;;0.57;;
37049;SDS011;22958;51.232;6.826;2023-07-20T10:42:08;1.83;;;1.02;;
37049;SDS011;22958;51.232;6.826;2023-07-20T10:44:38;2.28;;;0.85;;
37049;SDS011;22958;51.232;6.826;2023-07-20T10:47:11;1.33;;;0.80;;
37049;SDS011;22958;51.232;6.826;2023-07-20T10:49:57;3.38;;;0.60;;
37049;SDS011;22958;51.232;6.826;2023-07-20T10:52:25;1.20;;;0.73;;
37049;SDS011;22958;51.232;6.826;2023-07-20T10:54:51;3.90;;;0.75;;
37049;SDS011;22958;51.232;6.826;2023-07-20T10:57:29;4.27;;;0.90;;
37049;SDS011;22958;51.232;6.826;2023-07-20T11:00:09;1.25;;;0.77;;
37049;SDS011;22958;51.232;6.826;2023-07-20T11:02:58;2.08;;;1.05;;
37049;SDS011;22958;51.232;6.826;2023-07-20T11:05:39;2.13;;;1.10;;
37049;SDS011;22958;51.232;6.826;2023-07-20T11:08:14;4.15;;;1.00;;
37049;SDS011;22958;51.232;6.826;2023-07-20T11:14:04;2.40;;;0.80;;
37049;SDS011;22958;51.232;6.826;2023-07-20T11:16:43;1.08;;;0.68;;
37049;SDS011;22958;51.232;6.826;2023-07-20T11:19:21;3.38;;;0.93;;
37049;SDS011;22958;51.232;6.826;2023-07-20T11:21:49;3.47;;;0.70;;
37049;SDS011;22958;51.232;6.826;2023-07-20T11:24:16;1.48;;;0.70;;
37049;SDS011;22958;51.232;6.826;2023-07-20T11:26:43;0.95;;;0.63;;
37049;SDS011;22958;51.232;6.826;2023-07-20T11:29:13;1.75;;;0.77;;
37049;SDS011;22958;51.232;6.826;2023-07-20T11:31:41;1.85;;;0.77;;
37049;SDS011;22958;51.232;6.826;2023-07-20T11:34:10;1.48;;;0.73;;
37049;SDS011;22958;51.232;6.826;2023-07-20T11:36:43;3.05;;;0.85;;
37049;SDS011;22958;51.232;6.826;2023-07-20T11:39:10;4.50;;;0.77;;
37049;SDS011;22958;51.232;6.826;2023-07-20T11:41:38;3.83;;;1.10;;
37049;SDS011;22958;51.232;6.826;2023-07-20T11:44:09;1.60;;;0.70;;
37049;SDS011;22958;51.232;6.826;2023-07-20T11:46:38;2.10;;;0.80;;
37049;SDS011;22958;51.232;6.826;2023-07-20T11:51:30;6.20;;;0.60;;
37049;SDS011;22958;51.232;6.826;2023-07-20T11:53:56;3.35;;;0.70;;
37049;SDS011;22958;51.232;6.826;2023-07-20T11:56:25;3.20;;;0.80;;
37049;SDS011;22958;51.232;6.826;2023-07-20T11:58:54;1.63;;;0.70;;
37049;SDS011;22958;51.232;6.826;2023-07-20T12:01:22;1.35;;;0.70;;
37049;SDS011;22958;51.232;6.826;2023-07-20T12:03:48;1.13;;;0.80;;
37049;SDS011;22958;51.232;6.826;2023-07-20T12:06:15;1.38;;;0.77;;
37049;SDS011;22958;51.232;6.826;2023-07-20T12:08:41;1.90;;;1.00;;
37049;SDS011;22958;51.232;6.826;2023-07-20T12:13:36;1.10;;;0.60;;
37049;SDS011;22958;51.232;6.826;2023-07-20T12:16:07;1.85;;;0.60;;
37049;SDS011;22958;51.232;6.826;2023-07-20T12:18:34;3.17;;;1.00;;
37049;SDS011;22958;51.232;6.826;2023-07-20T12:21:01;1.90;;;0.93;;
37049;SDS011;22958;51.232;6.826;2023-07-20T12:23:27;2.38;;;0.60;;
37049;SDS011;22958;51.232;6.826;2023-07-20T12:26:00;1.15;;;0.77;;
37049;SDS011;22958;51.232;6.826;2023-07-20T12:28:26;1.73;;;0.77;;
37049;SDS011;22958;51.232;6.826;2023-07-20T12:30:51;1.77;;;0.90;;
37049;SDS011;22958;51.232;6.826;2023-07-20T12:33:21;2.08;;;0.68;;
37049;SDS011;22958;51.232;6.826;2023-07-20T12:35:47;4.18;;;1.13;;
37049;SDS011;22958;51.232;6.826;2023-07-20T12:38:14;4.57;;;0.80;;
37049;SDS011;22958;51.232;6.826;2023-07-20T12:40:40;3.90;;;0.90;;
37049;SDS011;22958;51.232;6.826;2023-07-20T12:43:06;2.03;;;0.50;;
37049;SDS011;22958;51.232;6.826;2023-07-20T12:45:32;3.13;;;0.98;;
37049;SDS011;22958;51.232;6.826;2023-07-20T12:47:57;1.97;;;0.70;;
37049;SDS011;22958;51.232;6.826;2023-07-20T12:50:23;1.70;;;0.90;;
37049;SDS011;22958;51.232;6.826;2023-07-20T12:52:48;1.20;;;0.70;;
37049;SDS011;22958;51.232;6.826;2023-07-20T12:55:14;1.15;;;0.68;;
37049;SDS011;22958;51.232;6.826;2023-07-20T12:57:40;3.10;;;0.90;;
37049;SDS011;22958;51.232;6.826;2023-07-20T13:00:06;1.27;;;0.70;;
37049;SDS011;22958;51.232;6.826;2023-07-20T13:02:33;3.33;;;1.10;;
37049;SDS011;22958;51.232;6.826;2023-07-20T13:04:59;2.72;;;1.00;;
37049;SDS011;22958;51.232;6.826;2023-07-20T13:07:32;1.83;;;0.90;;
37049;SDS011;22958;51.232;6.826;2023-07-20T13:10:01;2.97;;;0.80;;
37049;SDS011;22958;51.232;6.826;2023-07-20T13:12:29;2.83;;;0.90;;
37049;SDS011;22958;51.232;6.826;2023-07-20T13:14:56;2.00;;;0.93;;
37049;SDS011;22958;51.232;6.826;2023-07-20T13:17:22;1.27;;;0.73;;
37049;SDS011;22958;51.232;6.826;2023-07-20T13:22:13;1.02;;;0.60;;
37049;SDS011;22958;51.232;6.826;2023-07-20T13:24:39;2.47;;;0.57;;
37049;SDS011;22958;51.232;6.826;2023-07-20T13:27:10;1.40;;;0.70;;
37049;SDS011;22958;51.232;6.826;2023-07-20T13:29:35;4.87;;;1.10;;
37049;SDS011;22958;51.232;6.826;2023-07-20T13:32:01;1.63;;;0.70;;
37049;SDS011;22958;51.232;6.826;2023-07-20T13:34:29;3.30;;;0.80;;
37049;SDS011;22958;51.232;6.826;2023-07-20T13:36:54;3.93;;;0.90;;
37049;SDS011;22958;51.232;6.826;2023-07-20T13:39:20;2.05;;;0.80;;
37049;SDS011;22958;51.232;6.826;2023-07-20T13:41:49;2.08;;;0.90;;
37049;SDS011;22958;51.232;6.826;2023-07-20T13:44:14;8.10;;;0.77;;
37049;SDS011;22958;51.232;6.826;2023-07-20T13:46:40;1.90;;;0.80;;
37049;SDS011;22958;51.232;6.826;2023-07-20T13:49:05;1.67;;;0.73;;
37049;SDS011;22958;51.232;6.826;2023-07-20T13:51:31;2.50;;;0.70;;
37049;SDS011;22958;51.232;6.826;2023-07-20T13:53:57;2.80;;;0.87;;
37049;SDS011;22958;51.232;6.826;2023-07-20T13:56:23;2.78;;;0.70;;
37049;SDS011;22958;51.232;6.826;2023-07-20T13:58:49;4.43;;;0.70;;
37049;SDS011;22958;51.232;6.826;2023-07-20T14:01:15;1.80;;;0.50;;
37049;SDS011;22958;51.232;6.826;2023-07-20T14:03:42;2.78;;;0.68;;
37049;SDS011;22958;51.232;6.826;2023-07-20T14:06:08;1.75;;;0.77;;
37049;SDS011;22958;51.232;6.826;2023-07-20T14:08:34;5.13;;;1.43;;
37049;SDS011;22958;51.232;6.826;2023-07-20T14:10:59;1.30;;;0.70;;
37049;SDS011;22958;51.232;6.826;2023-07-20T14:13:25;2.00;;;0.90;;
37049;SDS011;22958;51.232;6.826;2023-07-20T14:15:50;0.90;;;0.60;;
37049;SDS011;22958;51.232;6.826;2023-07-20T14:18:16;1.23;;;0.63;;
37049;SDS011;22958;51.232;6.826;2023-07-20T14:20:41;2.97;;;0.73;;
37049;SDS011;22958;51.232;6.826;2023-07-20T14:23:09;2.10;;;0.95;;
37049;SDS011;22958;51.232;6.826;2023-07-20T14:25:34;1.87;;;0.83;;
37049;SDS011;22958;51.232;6.826;2023-07-20T14:28:00;4.68;;;0.70;;
37049;SDS011;22958;51.232;6.826;2023-07-20T14:30:26;4.03;;;0.93;;
37049;SDS011;22958;51.232;6.826;2023-07-20T14:32:51;1.83;;;0.80;;
37049;SDS011;22958;51.232;6.826;2023-07-20T14:35:17;2.87;;;1.03;;
37049;SDS011;22958;51.232;6.826;2023-07-20T14:37:43;3.40;;;0.97;;
37049;SDS011;22958;51.232;6.826;2023-07-20T14:40:11;2.92;;;0.75;;
37049;SDS011;22958;51.232;6.826;2023-07-20T14:42:38;3.60;;;1.42;;
37049;SDS011;22958;51.232;6.826;2023-07-20T14:45:04;1.33;;;0.80;;
37049;SDS011;22958;51.232;6.826;2023-07-20T14:47:30;1.05;;;0.60;;
37049;SDS011;22958;51.232;6.826;2023-07-20T14:49:59;1.13;;;0.50;;
37049;SDS011;22958;51.232;6.826;2023-07-20T14:52:27;3.45;;;0.80;;
37049;SDS011;22958;51.232;6.826;2023-07-20T14:54:53;4.10;;;0.68;;
37049;SDS011;22958;51.232;6.826;2023-07-20T14:57:18;3.70;;;0.70;;
37049;SDS011;22958;51.232;6.826;2023-07-20T14:59:45;1.50;;;0.80;;
37049;SDS011;22958;51.232;6.826;2023-07-20T15:02:11;1.63;;;0.77;;
37049;SDS011;22958;51.232;6.826;2023-07-20T15:04:37;4.72;;;1.10;;